sensor_id;sensor_type;location;lat;lon;timestamp;pressure;altitude;pressure_sealevel;temperature;humidity
53647;BME280;39550;52.230;5.194;2023-08-08T00:02:12;101275.22;;;15.39;80.54
53647;BME280;39550;52.230;5.194;2023-08-08T00:04:37;101272.63;;;15.39;80.77
53647;BME280;39550;52.230;5.194;2023-08-08T00:07:03;101285.56;;;15.45;81.00
53647;BME280;39550;52.230;5.194;2023-08-08T00:09:28;101265.69;;;15.36;81.10
53647;BME280;39550;52.230;5.194;2023-08-08T00:11:54;101267.44;;;15.36;80.81
53647;BME280;39550;52.230;5.194;2023-08-08T00:14:19;101267.44;;;15.36;80.71
53647;BME280;39550;52.230;5.194;2023-08-08T00:16:44;101250.16;;;15.30;80.72
53647;BME280;39550;52.230;5.194;2023-08-08T00:19:10;101274.31;;;15.43;80.76
53647;BME280;39550;52.230;5.194;2023-08-08T00:21:35;101266.56;;;15.40;80.63
53647;BME280;39550;52.230;5.194;2023-08-08T00:24:01;101188.06;;;14.91;81.00
53647;BME280;39550;52.230;5.194;2023-08-08T00:26:26;101263.09;;;15.38;80.78
53647;BME280;39550;52.230;5.194;2023-08-08T00:28:51;101205.28;;;15.05;80.86
53647;BME280;39550;52.230;5.194;2023-08-08T00:31:18;101270.00;;;15.42;80.79
53647;BME280;39550;52.230;5.194;2023-08-08T00:33:45;101269.13;;;15.43;81.01
53647;BME280;39550;52.230;5.194;2023-08-08T00:36:10;101263.09;;;15.38;81.04
53647;BME280;39550;52.230;5.194;2023-08-08T00:38:35;101240.63;;;15.30;81.32
53647;BME280;39550;52.230;5.194;2023-08-08T00:41:01;101240.63;;;15.30;81.02
53647;BME280;39550;52.230;5.194;2023-08-08T00:43:26;101235.47;;;15.27;80.49
53647;BME280;39550;52.230;5.194;2023-08-08T00:45:52;101174.19;;;14.94;80.75
53647;BME280;39550;52.230;5.194;2023-08-08T00:48:17;101240.63;;;15.30;81.23
53647;BME280;39550;52.230;5.194;2023-08-08T00:50:44;101253.56;;;15.37;80.94
53647;BME280;39550;52.230;5.194;2023-08-08T00:53:11;101254.47;;;15.36;81.56
53647;BME280;39550;52.230;5.194;2023-08-08T00:55:37;101203.56;;;15.04;81.18
53647;BME280;39550;52.230;5.194;2023-08-08T00:58:03;101246.69;;;15.34;81.17
53647;BME280;39550;52.230;5.194;2023-08-08T01:00:29;101240.66;;;15.24;81.22
53647;BME280;39550;52.230;5.194;2023-08-08T01:02:54;101226.88;;;15.16;81.94
53647;BME280;39550;52.230;5.194;2023-08-08T01:05:19;101198.34;;;15.02;81.34
53647;BME280;39550;52.230;5.194;2023-08-08T01:08:01;101257.06;;;15.36;81.54
53647;BME280;39550;52.230;5.194;2023-08-08T01:10:39;101250.97;;;15.35;81.79
53647;BME280;39550;52.230;5.194;2023-08-08T01:13:13;101257.91;;;15.38;81.75
53647;BME280;39550;52.230;5.194;2023-08-08T01:15:40;101226.84;;;15.19;81.63
53647;BME280;39550;52.230;5.194;2023-08-08T01:18:07;101241.47;;;15.32;81.19
53647;BME280;39550;52.230;5.194;2023-08-08T01:20:34;101185.41;;;14.97;81.55
53647;BME280;39550;52.230;5.194;2023-08-08T01:25:28;101238.06;;;15.27;81.93
53647;BME280;39550;52.230;5.194;2023-08-08T01:27:54;101205.28;;;15.05;81.90
53647;BME280;39550;52.230;5.194;2023-08-08T01:30:19;101240.66;;;15.27;82.01
53647;BME280;39550;52.230;5.194;2023-08-08T01:32:44;101244.06;;;15.32;82.27
53647;BME280;39550;52.230;5.194;2023-08-08T01:35:10;101241.47;;;15.32;81.89
53647;BME280;39550;52.230;5.194;2023-08-08T01:37:46;101237.19;;;15.25;81.84
53647;BME280;39550;52.230;5.194;2023-08-08T01:40:15;101232.84;;;15.30;82.11
53647;BME280;39550;52.230;5.194;2023-08-08T01:42:43;101235.44;;;15.30;82.07
53647;BME280;39550;52.230;5.194;2023-08-08T01:45:10;101233.69;;;15.29;81.90
53647;BME280;39550;52.230;5.194;2023-08-08T01:47:36;101158.69;;;14.83;81.80
53647;BME280;39550;52.230;5.194;2023-08-08T01:50:01;101237.19;;;15.30;82.33
53647;BME280;39550;52.230;5.194;2023-08-08T01:52:27;101216.47;;;15.19;82.22
53647;BME280;39550;52.230;5.194;2023-08-08T01:54:52;101156.94;;;14.90;81.79
53647;BME280;39550;52.230;5.194;2023-08-08T01:57:17;101197.44;;;15.14;82.09
53647;BME280;39550;52.230;5.194;2023-08-08T01:59:45;101216.41;;;15.25;82.19
53647;BME280;39550;52.230;5.194;2023-08-08T02:02:10;101169.00;;;14.95;82.41
53647;BME280;39550;52.230;5.194;2023-08-08T02:04:35;101195.72;;;15.16;82.01
53647;BME280;39550;52.230;5.194;2023-08-08T02:07:01;101194.00;;;15.15;82.29
53647;BME280;39550;52.230;5.194;2023-08-08T02:09:26;101171.56;;;15.02;82.39
53647;BME280;39550;52.230;5.194;2023-08-08T02:11:52;101206.09;;;15.19;82.36
53647;BME280;39550;52.230;5.194;2023-08-08T02:14:17;101206.94;;;15.17;82.00
53647;BME280;39550;52.230;5.194;2023-08-08T02:16:43;101195.72;;;15.16;82.29
53647;BME280;39550;52.230;5.194;2023-08-08T02:19:08;101205.22;;;15.22;82.37
53647;BME280;39550;52.230;5.194;2023-08-08T02:21:34;101197.41;;;15.17;82.59
53647;BME280;39550;52.230;5.194;2023-08-08T02:23:59;101198.31;;;15.16;82.28
53647;BME280;39550;52.230;5.194;2023-08-08T02:26:25;101164.69;;;14.94;81.99
53647;BME280;39550;52.230;5.194;2023-08-08T02:28:50;101199.19;;;15.12;82.57
53647;BME280;39550;52.230;5.194;2023-08-08T02:31:15;101159.50;;;14.91;82.66
53647;BME280;39550;52.230;5.194;2023-08-08T02:33:49;101112.94;;;14.63;82.48
53647;BME280;39550;52.230;5.194;2023-08-08T02:36:16;101193.97;;;15.18;82.94
53647;BME280;39550;52.230;5.194;2023-08-08T02:38:41;101163.81;;;14.89;82.62
53647;BME280;39550;52.230;5.194;2023-08-08T02:41:07;101178.47;;;15.03;82.32
53647;BME280;39550;52.230;5.194;2023-08-08T02:43:32;101176.72;;;15.05;82.70
53647;BME280;39550;52.230;5.194;2023-08-08T02:45:57;101190.53;;;15.13;82.55
53647;BME280;39550;52.230;5.194;2023-08-08T02:48:23;101182.81;;;15.04;82.73
53647;BME280;39550;52.230;5.194;2023-08-08T02:50:48;101173.28;;;14.98;82.92
53647;BME280;39550;52.230;5.194;2023-08-08T02:53:13;101168.97;;;15.00;83.02
53647;BME280;39550;52.230;5.194;2023-08-08T02:55:39;101179.31;;;15.05;83.09
53647;BME280;39550;52.230;5.194;2023-08-08T02:58:04;101168.09;;;15.03;82.92
53647;BME280;39550;52.230;5.194;2023-08-08T03:00:29;101161.22;;;14.95;82.71
53647;BME280;39550;52.230;5.194;2023-08-08T03:02:55;101194.81;;;15.19;83.20
53647;BME280;39550;52.230;5.194;2023-08-08T03:05:20;101104.25;;;14.61;83.06
53647;BME280;39550;52.230;5.194;2023-08-08T03:07:45;101149.13;;;14.88;82.89
53647;BME280;39550;52.230;5.194;2023-08-08T03:10:11;101194.81;;;15.17;83.16
53647;BME280;39550;52.230;5.194;2023-08-08T03:12:36;101100.81;;;14.66;83.18
53647;BME280;39550;52.230;5.194;2023-08-08T03:15:03;101177.56;;;15.10;82.93
53647;BME280;39550;52.230;5.194;2023-08-08T03:17:29;101177.56;;;15.10;82.99
53647;BME280;39550;52.230;5.194;2023-08-08T03:19:54;101177.56;;;15.08;83.11
53647;BME280;39550;52.230;5.194;2023-08-08T03:22:20;101168.03;;;15.09;83.21
53647;BME280;39550;52.230;5.194;2023-08-08T03:24:45;101110.31;;;14.68;83.40
53647;BME280;39550;52.230;5.194;2023-08-08T03:27:11;101176.72;;;15.08;83.00
53647;BME280;39550;52.230;5.194;2023-08-08T03:29:36;101176.72;;;15.08;83.23
53647;BME280;39550;52.230;5.194;2023-08-08T03:32:03;101194.00;;;15.12;83.31
53647;BME280;39550;52.230;5.194;2023-08-08T03:34:29;101146.53;;;14.90;83.31
53647;BME280;39550;52.230;5.194;2023-08-08T03:36:54;101177.59;;;15.07;83.12
53647;BME280;39550;52.230;5.194;2023-08-08T03:39:20;101175.00;;;15.01;82.98
53647;BME280;39550;52.230;5.194;2023-08-08T03:41:45;101149.13;;;14.91;83.11
53647;BME280;39550;52.230;5.194;2023-08-08T03:44:10;101112.03;;;14.66;83.20
53647;BME280;39550;52.230;5.194;2023-08-08T03:46:35;101126.69;;;14.78;83.08
53647;BME280;39550;52.230;5.194;2023-08-08T03:49:01;101172.41;;;15.04;83.23
53647;BME280;39550;52.230;5.194;2023-08-08T03:51:26;101067.19;;;14.45;83.66
53647;BME280;39550;52.230;5.194;2023-08-08T03:53:52;101175.88;;;15.03;83.57
53647;BME280;39550;52.230;5.194;2023-08-08T03:56:17;101175.03;;;15.04;83.74
53647;BME280;39550;52.230;5.194;2023-08-08T03:58:42;101161.16;;;15.02;83.32
53647;BME280;39550;52.230;5.194;2023-08-08T04:01:08;101167.22;;;15.05;83.27
53647;BME280;39550;52.230;5.194;2023-08-08T04:03:33;101140.50;;;14.85;84.13
53647;BME280;39550;52.230;5.194;2023-08-08T04:05:59;101162.94;;;15.00;83.44
53647;BME280;39550;52.230;5.194;2023-08-08T04:08:24;101168.13;;;15.00;83.21
53647;BME280;39550;52.230;5.194;2023-08-08T04:10:49;101118.03;;;14.76;83.65
53647;BME280;39550;52.230;5.194;2023-08-08T04:13:15;101133.56;;;14.85;83.89
53647;BME280;39550;52.230;5.194;2023-08-08T04:15:40;101122.34;;;14.80;83.14
53647;BME280;39550;52.230;5.194;2023-08-08T04:18:06;101157.72;;;15.03;84.01
53647;BME280;39550;52.230;5.194;2023-08-08T04:20:32;101128.41;;;14.82;83.52
53647;BME280;39550;52.230;5.194;2023-08-08T04:22:58;101162.03;;;15.02;83.52
53647;BME280;39550;52.230;5.194;2023-08-08T04:25:24;101138.75;;;14.90;83.30
53647;BME280;39550;52.230;5.194;2023-08-08T04:27:49;101093.88;;;14.61;83.50
53647;BME280;39550;52.230;5.194;2023-08-08T04:30:14;101147.38;;;14.93;83.59
53647;BME280;39550;52.230;5.194;2023-08-08T04:32:40;101125.81;;;14.80;83.11
53647;BME280;39550;52.230;5.194;2023-08-08T04:35:05;101141.34;;;14.93;83.51
53647;BME280;39550;52.230;5.194;2023-08-08T04:37:31;101106.00;;;14.72;83.35
53647;BME280;39550;52.230;5.194;2023-08-08T04:39:56;101124.94;;;14.86;83.19
53647;BME280;39550;52.230;5.194;2023-08-08T04:42:21;101100.84;;;14.62;82.87
53647;BME280;39550;52.230;5.194;2023-08-08T04:44:47;101149.97;;;14.92;83.25
53647;BME280;39550;52.230;5.194;2023-08-08T04:47:12;101122.41;;;14.74;82.58
53647;BME280;39550;52.230;5.194;2023-08-08T04:49:37;101136.16;;;14.87;83.17
53647;BME280;39550;52.230;5.194;2023-08-08T04:52:03;101159.44;;;15.01;83.51
53647;BME280;39550;52.230;5.194;2023-08-08T04:54:29;101092.16;;;14.60;82.65
53647;BME280;39550;52.230;5.194;2023-08-08T04:56:54;101087.88;;;14.55;83.50
53647;BME280;39550;52.230;5.194;2023-08-08T04:59:19;101082.69;;;14.52;83.06
53647;BME280;39550;52.230;5.194;2023-08-08T05:01:45;101086.16;;;14.51;83.66
53647;BME280;39550;52.230;5.194;2023-08-08T05:04:10;101150.81;;;14.92;82.99
53647;BME280;39550;52.230;5.194;2023-08-08T05:06:35;101154.28;;;14.96;83.24
53647;BME280;39550;52.230;5.194;2023-08-08T05:09:01;101144.81;;;14.90;82.80
53647;BME280;39550;52.230;5.194;2023-08-08T05:11:26;101106.00;;;14.66;83.24
53647;BME280;39550;52.230;5.194;2023-08-08T05:13:52;101164.66;;;14.96;83.66
53647;BME280;39550;52.230;5.194;2023-08-08T05:16:18;101145.66;;;14.89;82.49
53647;BME280;39550;52.230;5.194;2023-08-08T05:18:43;101123.22;;;14.76;82.98
53647;BME280;39550;52.230;5.194;2023-08-08T05:21:11;101156.03;;;14.95;82.57
53647;BME280;39550;52.230;5.194;2023-08-08T05:23:37;101150.81;;;14.92;83.08
53647;BME280;39550;52.230;5.194;2023-08-08T05:26:02;101160.34;;;15.00;82.78
53647;BME280;39550;52.230;5.194;2023-08-08T05:28:28;101164.63;;;15.02;82.66
53647;BME280;39550;52.230;5.194;2023-08-08T05:30:54;101137.03;;;14.87;82.24
53647;BME280;39550;52.230;5.194;2023-08-08T05:33:19;101176.72;;;15.08;81.94
53647;BME280;39550;52.230;5.194;2023-08-08T05:35:45;101156.78;;;15.11;81.72
53647;BME280;39550;52.230;5.194;2023-08-08T05:38:10;101168.78;;;15.31;81.16
53647;BME280;39550;52.230;5.194;2023-08-08T05:40:36;101143.78;;;15.19;80.10
53647;BME280;39550;52.230;5.194;2023-08-08T05:43:02;101142.09;;;15.09;80.49
53647;BME280;39550;52.230;5.194;2023-08-08T05:45:28;101143.81;;;15.11;81.00
53647;BME280;39550;52.230;5.194;2023-08-08T05:47:53;101154.19;;;15.16;80.74
53647;BME280;39550;52.230;5.194;2023-08-08T05:50:20;101152.53;;;15.00;80.78
53647;BME280;39550;52.230;5.194;2023-08-08T05:52:46;101110.28;;;14.73;81.36
53647;BME280;39550;52.230;5.194;2023-08-08T05:55:11;101181.91;;;15.11;81.24
53647;BME280;39550;52.230;5.194;2023-08-08T05:57:37;101177.56;;;15.11;81.74
53647;BME280;39550;52.230;5.194;2023-08-08T06:00:04;101175.84;;;15.09;81.31
53647;BME280;39550;52.230;5.194;2023-08-08T06:02:30;101177.56;;;15.08;82.00
53647;BME280;39550;52.230;5.194;2023-08-08T06:04:55;101138.75;;;14.85;81.77
53647;BME280;39550;52.230;5.194;2023-08-08T06:07:21;101175.00;;;15.07;81.26
53647;BME280;39550;52.230;5.194;2023-08-08T06:09:46;101180.19;;;15.07;81.30
53647;BME280;39550;52.230;5.194;2023-08-08T06:12:12;101172.41;;;15.02;81.81
53647;BME280;39550;52.230;5.194;2023-08-08T06:14:37;101165.53;;;14.92;81.47
53647;BME280;39550;52.230;5.194;2023-08-08T06:17:03;101142.22;;;14.84;81.46
53647;BME280;39550;52.230;5.194;2023-08-08T06:19:28;101162.91;;;14.96;81.11
53647;BME280;39550;52.230;5.194;2023-08-08T06:21:53;101181.94;;;15.02;81.30
53647;BME280;39550;52.230;5.194;2023-08-08T06:24:19;101191.41;;;15.09;81.50
53647;BME280;39550;52.230;5.194;2023-08-08T06:26:44;101169.81;;;15.01;80.78
53647;BME280;39550;52.230;5.194;2023-08-08T06:29:10;101163.75;;;15.02;80.91
53647;BME280;39550;52.230;5.194;2023-08-08T06:31:35;101178.44;;;15.06;80.57
53647;BME280;39550;52.230;5.194;2023-08-08T06:34:03;101194.84;;;15.14;80.31
53647;BME280;39550;52.230;5.194;2023-08-08T06:36:29;101123.28;;;14.70;80.59
53647;BME280;39550;52.230;5.194;2023-08-08T06:38:54;101163.81;;;14.95;80.78
53647;BME280;39550;52.230;5.194;2023-08-08T06:41:20;101174.13;;;15.03;80.83
53647;BME280;39550;52.230;5.194;2023-08-08T06:43:45;101194.00;;;15.12;80.85
53647;BME280;39550;52.230;5.194;2023-08-08T06:46:10;101189.69;;;15.09;80.89
53647;BME280;39550;52.230;5.194;2023-08-08T06:48:36;101193.13;;;15.10;80.80
53647;BME280;39550;52.230;5.194;2023-08-08T06:51:01;101159.47;;;14.94;80.46
53647;BME280;39550;52.230;5.194;2023-08-08T06:53:26;101157.75;;;14.93;80.24
53647;BME280;39550;52.230;5.194;2023-08-08T06:55:52;101163.81;;;14.94;80.32
53647;BME280;39550;52.230;5.194;2023-08-08T06:58:17;101184.50;;;15.11;80.65
53647;BME280;39550;52.230;5.194;2023-08-08T07:00:42;101149.13;;;14.87;80.61
53647;BME280;39550;52.230;5.194;2023-08-08T07:03:08;101190.53;;;15.16;80.48
53647;BME280;39550;52.230;5.194;2023-08-08T07:05:33;101192.22;;;15.17;80.39
53647;BME280;39550;52.230;5.194;2023-08-08T07:07:59;101188.81;;;15.13;80.24
53647;BME280;39550;52.230;5.194;2023-08-08T07:10:24;101171.56;;;14.98;80.38
53647;BME280;39550;52.230;5.194;2023-08-08T07:12:49;101130.09;;;14.89;80.28
53647;BME280;39550;52.230;5.194;2023-08-08T07:15:15;101179.28;;;15.14;80.42
53647;BME280;39550;52.230;5.194;2023-08-08T07:17:40;101139.56;;;14.98;79.86
53647;BME280;39550;52.230;5.194;2023-08-08T07:20:06;101178.34;;;15.24;80.10
53647;BME280;39550;52.230;5.194;2023-08-08T07:22:32;101127.47;;;14.98;80.04
53647;BME280;39550;52.230;5.194;2023-08-08T07:24:58;101159.38;;;15.13;79.51
53647;BME280;39550;52.230;5.194;2023-08-08T07:27:26;101169.72;;;15.22;79.75
53647;BME280;39550;52.230;5.194;2023-08-08T07:29:51;101162.88;;;15.12;79.89
53647;BME280;39550;52.230;5.194;2023-08-08T07:32:16;101173.97;;;15.29;79.67
53647;BME280;39550;52.230;5.194;2023-08-08T07:34:42;101175.69;;;15.32;79.43
53647;BME280;39550;52.230;5.194;2023-08-08T07:37:08;101173.97;;;15.34;79.36
53647;BME280;39550;52.230;5.194;2023-08-08T07:39:33;101171.38;;;15.29;79.48
53647;BME280;39550;52.230;5.194;2023-08-08T07:41:58;101173.13;;;15.30;79.43
53647;BME280;39550;52.230;5.194;2023-08-08T07:44:24;101145.50;;;15.17;79.81
53647;BME280;39550;52.230;5.194;2023-08-08T07:46:49;101110.09;;;15.07;79.42
53647;BME280;39550;52.230;5.194;2023-08-08T07:49:14;101138.53;;;15.25;79.63
53647;BME280;39550;52.230;5.194;2023-08-08T07:51:40;101116.13;;;15.09;79.31
53647;BME280;39550;52.230;5.194;2023-08-08T07:54:05;101142.81;;;15.29;79.17
53647;BME280;39550;52.230;5.194;2023-08-08T07:56:34;101112.66;;;15.13;79.06
53647;BME280;39550;52.230;5.194;2023-08-08T07:58:59;101143.63;;;15.38;79.17
53647;BME280;39550;52.230;5.194;2023-08-08T08:01:26;101124.69;;;15.26;79.13
53647;BME280;39550;52.230;5.194;2023-08-08T08:03:52;101135.00;;;15.36;79.18
53647;BME280;39550;52.230;5.194;2023-08-08T08:06:18;101145.34;;;15.42;79.06
53647;BME280;39550;52.230;5.194;2023-08-08T08:08:43;101178.97;;;15.60;78.65
53647;BME280;39550;52.230;5.194;2023-08-08T08:11:08;101162.50;;;15.61;78.53
53647;BME280;39550;52.230;5.194;2023-08-08T08:13:34;101145.28;;;15.49;78.69
53647;BME280;39550;52.230;5.194;2023-08-08T08:15:59;101159.88;;;15.63;78.09
53647;BME280;39550;52.230;5.194;2023-08-08T08:18:24;101149.47;;;15.68;78.12
53647;BME280;39550;52.230;5.194;2023-08-08T08:20:50;101146.88;;;15.68;78.04
53647;BME280;39550;52.230;5.194;2023-08-08T08:23:15;101116.63;;;15.60;78.37
53647;BME280;39550;52.230;5.194;2023-08-08T08:25:41;101119.25;;;15.57;78.14
53647;BME280;39550;52.230;5.194;2023-08-08T08:28:06;101158.94;;;15.76;77.75
53647;BME280;39550;52.230;5.194;2023-08-08T08:30:31;101158.03;;;15.79;77.75
53647;BME280;39550;52.230;5.194;2023-08-08T08:32:57;101148.50;;;15.81;77.59
53647;BME280;39550;52.230;5.194;2023-08-08T08:35:22;101141.66;;;15.69;77.58
53647;BME280;39550;52.230;5.194;2023-08-08T08:37:48;101159.81;;;15.80;77.77
53647;BME280;39550;52.230;5.194;2023-08-08T08:40:14;101152.84;;;15.79;77.81
53647;BME280;39550;52.230;5.194;2023-08-08T08:42:40;101153.72;;;15.81;77.89
53647;BME280;39550;52.230;5.194;2023-08-08T08:45:08;101141.63;;;15.74;77.80
53647;BME280;39550;52.230;5.194;2023-08-08T08:47:36;101156.31;;;15.78;77.43
53647;BME280;39550;52.230;5.194;2023-08-08T08:50:01;101170.13;;;15.88;77.62
53647;BME280;39550;52.230;5.194;2023-08-08T08:52:29;101177.88;;;15.92;77.04
53647;BME280;39550;52.230;5.194;2023-08-08T08:54:54;101165.75;;;15.91;76.62
53647;BME280;39550;52.230;5.194;2023-08-08T08:57:21;101171.78;;;15.98;76.71
53647;BME280;39550;52.230;5.194;2023-08-08T08:59:48;101166.69;;;15.81;76.33
53647;BME280;39550;52.230;5.194;2023-08-08T09:02:14;101175.22;;;15.98;76.69
53647;BME280;39550;52.230;5.194;2023-08-08T09:04:39;101133.91;;;15.66;76.58
53647;BME280;39550;52.230;5.194;2023-08-08T09:07:06;101137.34;;;15.66;76.45
53647;BME280;39550;52.230;5.194;2023-08-08T09:09:32;101152.00;;;15.74;76.67
53647;BME280;39550;52.230;5.194;2023-08-08T09:11:58;101164.94;;;15.85;77.13
53647;BME280;39550;52.230;5.194;2023-08-08T09:14:25;101170.88;;;15.97;77.05
53647;BME280;39550;52.230;5.194;2023-08-08T09:16:55;101162.28;;;15.92;76.34
53647;BME280;39550;52.230;5.194;2023-08-08T09:19:22;101176.97;;;15.98;76.50
53647;BME280;39550;52.230;5.194;2023-08-08T09:21:49;101179.50;;;16.03;76.25
53647;BME280;39550;52.230;5.194;2023-08-08T09:24:14;101189.84;;;16.09;75.76
53647;BME280;39550;52.230;5.194;2023-08-08T09:26:41;101171.78;;;15.93;75.84
53647;BME280;39550;52.230;5.194;2023-08-08T09:29:07;101140.63;;;15.90;75.45
53647;BME280;39550;52.230;5.194;2023-08-08T09:31:34;101158.78;;;15.96;75.66
53647;BME280;39550;52.230;5.194;2023-08-08T09:34:01;101119.06;;;15.80;75.24
53647;BME280;39550;52.230;5.194;2023-08-08T09:36:27;101107.00;;;15.69;75.67
53647;BME280;39550;52.230;5.194;2023-08-08T09:38:53;101192.47;;;16.06;75.53
53647;BME280;39550;52.230;5.194;2023-08-08T09:41:20;101182.06;;;16.10;75.69
53647;BME280;39550;52.230;5.194;2023-08-08T09:43:47;101131.09;;;15.89;75.21
53647;BME280;39550;52.230;5.194;2023-08-08T09:46:13;101163.84;;;16.12;75.15
53647;BME280;39550;52.230;5.194;2023-08-08T09:48:41;101183.66;;;16.22;75.14
53647;BME280;39550;52.230;5.194;2023-08-08T09:51:06;101172.53;;;16.08;75.29
53647;BME280;39550;52.230;5.194;2023-08-08T09:53:32;101186.38;;;16.10;75.34
53647;BME280;39550;52.230;5.194;2023-08-08T09:56:00;101139.00;;;15.80;76.03
53647;BME280;39550;52.230;5.194;2023-08-08T09:58:25;101197.63;;;16.13;75.67
53647;BME280;39550;52.230;5.194;2023-08-08T10:00:51;101183.69;;;16.19;75.50
53647;BME280;39550;52.230;5.194;2023-08-08T10:03:17;101191.53;;;16.16;75.71
53647;BME280;39550;52.230;5.194;2023-08-08T10:05:43;101188.09;;;16.11;75.15
53647;BME280;39550;52.230;5.194;2023-08-08T10:08:09;101187.97;;;16.23;74.82
53647;BME280;39550;52.230;5.194;2023-08-08T10:10:35;101196.53;;;16.34;74.46
53647;BME280;39550;52.230;5.194;2023-08-08T10:13:01;101186.13;;;16.34;74.17
53647;BME280;39550;52.230;5.194;2023-08-08T10:15:27;101135.34;;;16.01;73.87
53647;BME280;39550;52.230;5.194;2023-08-08T10:17:56;101179.34;;;16.18;74.34
53647;BME280;39550;52.230;5.194;2023-08-08T10:20:24;101198.31;;;16.29;73.48
53647;BME280;39550;52.230;5.194;2023-08-08T10:22:52;101193.09;;;16.32;73.78
53647;BME280;39550;52.230;5.194;2023-08-08T10:25:27;101196.59;;;16.28;73.79
53647;BME280;39550;52.230;5.194;2023-08-08T10:28:11;101194.91;;;16.21;73.96
53647;BME280;39550;52.230;5.194;2023-08-08T10:31:15;101198.34;;;16.26;74.48
53647;BME280;39550;52.230;5.194;2023-08-08T10:33:42;101193.22;;;16.20;74.19
53647;BME280;39550;52.230;5.194;2023-08-08T10:36:11;101182.81;;;16.17;74.13
53647;BME280;39550;52.230;5.194;2023-08-08T10:38:46;101175.94;;;16.16;74.13
53647;BME280;39550;52.230;5.194;2023-08-08T10:41:21;101189.59;;;16.37;73.79
53647;BME280;39550;52.230;5.194;2023-08-08T10:43:52;101179.19;;;16.33;73.54
53647;BME280;39550;52.230;5.194;2023-08-08T10:46:25;101196.47;;;16.41;73.77
53647;BME280;39550;52.230;5.194;2023-08-08T10:48:53;101180.97;;;16.31;73.62
53647;BME280;39550;52.230;5.194;2023-08-08T10:51:19;101190.41;;;16.40;73.73
53647;BME280;39550;52.230;5.194;2023-08-08T10:53:45;101187.69;;;16.51;73.39
53647;BME280;39550;52.230;5.194;2023-08-08T10:56:13;101192.78;;;16.60;73.04
53647;BME280;39550;52.230;5.194;2023-08-08T10:58:40;101178.06;;;16.59;73.08
53647;BME280;39550;52.230;5.194;2023-08-08T11:01:06;101184.97;;;16.62;73.09
53647;BME280;39550;52.230;5.194;2023-08-08T11:03:39;101183.31;;;16.56;73.18
53647;BME280;39550;52.230;5.194;2023-08-08T11:06:09;101187.53;;;16.65;73.42
53647;BME280;39550;52.230;5.194;2023-08-08T11:08:36;101197.09;;;16.63;73.18
53647;BME280;39550;52.230;5.194;2023-08-08T11:11:04;101188.47;;;16.59;72.64
53647;BME280;39550;52.230;5.194;2023-08-08T11:13:30;101179.78;;;16.60;70.91
53647;BME280;39550;52.230;5.194;2023-08-08T11:15:55;101212.63;;;16.71;71.84
53647;BME280;39550;52.230;5.194;2023-08-08T11:18:21;101197.06;;;16.66;71.98
53647;BME280;39550;52.230;5.194;2023-08-08T11:23:16;101200.50;;;16.66;72.49
53647;BME280;39550;52.230;5.194;2023-08-08T11:25:44;101206.59;;;16.68;72.67
53647;BME280;39550;52.230;5.194;2023-08-08T11:28:11;101201.34;;;16.72;72.20
53647;BME280;39550;52.230;5.194;2023-08-08T11:30:39;101193.59;;;16.67;72.51
53647;BME280;39550;52.230;5.194;2023-08-08T11:33:05;101128.09;;;16.29;72.57
53647;BME280;39550;52.230;5.194;2023-08-08T11:35:32;101185.78;;;16.65;72.85
53647;BME280;39550;52.230;5.194;2023-08-08T11:38:00;101145.41;;;16.32;73.06
53647;BME280;39550;52.230;5.194;2023-08-08T11:40:30;101135.94;;;16.26;73.06
53647;BME280;39550;52.230;5.194;2023-08-08T11:42:58;101160.03;;;16.44;73.35
53647;BME280;39550;52.230;5.194;2023-08-08T11:45:24;101166.91;;;16.49;73.13
53647;BME280;39550;52.230;5.194;2023-08-08T11:47:51;101134.06;;;16.38;72.30
53647;BME280;39550;52.230;5.194;2023-08-08T11:50:19;101185.66;;;16.75;72.43
53647;BME280;39550;52.230;5.194;2023-08-08T11:52:46;101189.09;;;16.80;72.18
53647;BME280;39550;52.230;5.194;2023-08-08T11:55:12;101195.19;;;16.77;72.14
53647;BME280;39550;52.230;5.194;2023-08-08T11:57:39;101180.41;;;16.81;71.91
53647;BME280;39550;52.230;5.194;2023-08-08T12:00:09;101169.25;;;16.69;72.19
53647;BME280;39550;52.230;5.194;2023-08-08T12:02:38;101193.41;;;16.79;71.92
53647;BME280;39550;52.230;5.194;2023-08-08T12:05:12;101191.56;;;16.88;71.73
53647;BME280;39550;52.230;5.194;2023-08-08T12:07:43;101194.22;;;16.89;71.36
53647;BME280;39550;52.230;5.194;2023-08-08T12:10:29;101146.72;;;16.70;71.43
53647;BME280;39550;52.230;5.194;2023-08-08T12:12:56;101195.94;;;16.87;71.89
53647;BME280;39550;52.230;5.194;2023-08-08T12:15:36;101188.16;;;16.84;71.23
53647;BME280;39550;52.230;5.194;2023-08-08T12:18:03;101139.06;;;16.56;71.48
53647;BME280;39550;52.230;5.194;2023-08-08T12:20:29;101183.72;;;16.95;71.23
53647;BME280;39550;52.230;5.194;2023-08-08T12:22:55;101193.03;;;17.13;71.00
53647;BME280;39550;52.230;5.194;2023-08-08T12:25:20;101150.91;;;16.79;71.08
53647;BME280;39550;52.230;5.194;2023-08-08T12:27:46;101203.59;;;17.01;71.17
53647;BME280;39550;52.230;5.194;2023-08-08T12:30:11;101193.91;;;17.11;71.29
53647;BME280;39550;52.230;5.194;2023-08-08T12:32:37;101188.66;;;17.14;70.54
53647;BME280;39550;52.230;5.194;2023-08-08T12:35:03;101168.16;;;16.92;71.04
53647;BME280;39550;52.230;5.194;2023-08-08T12:37:28;101181.88;;;17.04;70.97
53647;BME280;39550;52.230;5.194;2023-08-08T12:39:54;101111.03;;;16.78;70.13
53647;BME280;39550;52.230;5.194;2023-08-08T12:42:19;101158.63;;;16.87;70.91
53647;BME280;39550;52.230;5.194;2023-08-08T12:44:45;101140.75;;;16.60;71.68
53647;BME280;39550;52.230;5.194;2023-08-08T12:47:12;101183.00;;;16.79;71.44
53647;BME280;39550;52.230;5.194;2023-08-08T12:49:37;101153.69;;;16.65;71.59
53647;BME280;39550;52.230;5.194;2023-08-08T12:52:02;101186.91;;;17.16;70.60